createdAt,value
2022-08-05T00:01:27.790Z,19.69
2022-08-05T00:03:57.013Z,19.32
2022-08-05T00:06:30.761Z,18.96
2022-08-05T00:09:00.518Z,18.83
2022-08-05T00:11:34.901Z,18.77
2022-08-05T00:14:02.559Z,18.72
2022-08-05T00:16:52.699Z,18.67
2022-08-05T00:19:22.682Z,18.67
2022-08-05T00:21:50.063Z,18.63
2022-08-05T00:24:19.364Z,18.59
2022-08-05T00:26:53.011Z,18.54
2022-08-05T00:29:22.693Z,18.60
2022-08-05T00:32:10.530Z,18.59
2022-08-05T00:34:54.292Z,18.59
2022-08-05T00:37:27.729Z,18.64
2022-08-05T00:40:13.900Z,18.57
2022-08-05T00:42:49.120Z,18.55
2022-08-05T00:45:16.607Z,18.55
2022-08-05T00:47:57.729Z,18.60
2022-08-05T00:50:32.652Z,18.56
2022-08-05T00:52:59.276Z,18.54
2022-08-05T00:55:34.163Z,18.52
2022-08-05T00:58:13.777Z,18.49
2022-08-05T01:00:40.868Z,18.46
2022-08-05T01:03:10.382Z,18.36
2022-08-05T01:05:48.764Z,18.35
2022-08-05T01:08:42.156Z,18.33
2022-08-05T01:11:22.709Z,18.33
2022-08-05T01:14:00.047Z,18.33
2022-08-05T01:16:45.551Z,18.31
2022-08-05T01:19:36.508Z,18.36
2022-08-05T01:22:27.929Z,18.36
2022-08-05T01:24:57.815Z,18.37
2022-08-05T01:28:01.926Z,18.26
2022-08-05T01:30:34.058Z,18.21
2022-08-05T01:33:03.826Z,18.20
2022-08-05T01:35:51.342Z,18.15
2022-08-05T01:38:26.830Z,18.13
2022-08-05T01:40:54.482Z,18.13
2022-08-05T01:43:24.028Z,18.17
2022-08-05T01:45:56.167Z,18.17
2022-08-05T01:48:24.195Z,18.10
2022-08-05T01:50:51.563Z,18.07
2022-08-05T01:53:54.805Z,18.03
2022-08-05T01:56:09.674Z,18.06
2022-08-05T01:58:45.023Z,18.03
2022-08-05T02:01:13.570Z,18.07
2022-08-05T02:03:44.273Z,18.14
2022-08-05T02:06:33.793Z,18.09
2022-08-05T02:08:59.237Z,18.14
2022-08-05T02:11:32.730Z,18.19
2022-08-05T02:14:05.858Z,18.31
2022-08-05T02:16:42.250Z,18.22
2022-08-05T02:19:34.746Z,18.11
2022-08-05T02:22:25.396Z,18.06
2022-08-05T02:24:56.030Z,18.13
2022-08-05T02:27:29.958Z,18.16
2022-08-05T02:30:10.928Z,18.18
2022-08-05T02:32:38.325Z,18.14
2022-08-05T02:35:14.073Z,18.16
2022-08-05T02:37:42.948Z,18.02
2022-08-05T02:40:16.844Z,17.89
2022-08-05T02:42:44.843Z,17.96
2022-08-05T02:45:20.802Z,17.99
2022-08-05T02:48:09.932Z,17.96
2022-08-05T02:50:38.310Z,17.93
2022-08-05T02:53:11.695Z,18.00
2022-08-05T02:55:53.912Z,17.98
2022-08-05T02:58:23.161Z,17.99
2022-08-05T03:00:55.898Z,18.10
2022-08-05T03:03:23.553Z,18.19
2022-08-05T03:06:53.943Z,18.26
2022-08-05T03:08:39.161Z,18.32
2022-08-05T03:11:55.196Z,18.34
2022-08-05T03:14:13.375Z,18.41
2022-08-05T03:16:40.356Z,18.48
2022-08-05T03:19:17.190Z,18.46
2022-08-05T03:21:53.560Z,18.51
2022-08-05T03:24:29.563Z,18.54
2022-08-05T03:26:56.531Z,18.54
2022-08-05T03:29:24.006Z,18.54
2022-08-05T03:31:56.533Z,18.57
2022-08-05T03:34:27.783Z,18.55
2022-08-05T03:36:55.392Z,18.49
2022-08-05T03:39:27.134Z,18.40
2022-08-05T03:41:56.354Z,18.34
2022-08-05T03:44:23.602Z,18.30
2022-08-05T03:46:50.294Z,18.24
2022-08-05T03:49:17.109Z,18.23
2022-08-05T03:52:48.333Z,18.19
2022-08-05T03:56:06.261Z,18.14
2022-08-05T03:57:49.009Z,18.09
2022-08-05T04:00:17.468Z,18.01
2022-08-05T04:02:58.648Z,17.95
2022-08-05T04:05:33.158Z,17.88
2022-08-05T04:08:05.628Z,17.80
2022-08-05T04:10:37.353Z,17.77
2022-08-05T04:13:04.612Z,17.72
2022-08-05T04:15:33.385Z,17.78
2022-08-05T04:18:07.259Z,17.78
2022-08-05T04:20:34.559Z,17.82
2022-08-05T04:23:01.418Z,17.88
2022-08-05T04:25:57.555Z,17.92
2022-08-05T04:28:15.033Z,17.93
2022-08-05T04:30:43.642Z,17.93
2022-08-05T04:33:10.212Z,17.95
2022-08-05T04:36:15.848Z,18.00
2022-08-05T04:38:23.519Z,18.03
2022-08-05T04:41:07.352Z,18.06
2022-08-05T04:43:36.052Z,18.00
2022-08-05T04:46:04.561Z,17.94
2022-08-05T04:48:31.901Z,17.87
2022-08-05T04:51:03.218Z,17.82
2022-08-05T04:53:36.465Z,17.80
2022-08-05T04:56:33.958Z,17.84
2022-08-05T04:58:55.456Z,17.92
2022-08-05T05:02:05.709Z,17.98
2022-08-05T05:04:09.544Z,18.04
2022-08-05T05:06:43.063Z,18.07
2022-08-05T05:09:14.290Z,18.12
2022-08-05T05:11:54.011Z,18.17
2022-08-05T05:14:27.855Z,18.15
2022-08-05T05:16:58.718Z,18.19
2022-08-05T05:19:27.489Z,18.12
2022-08-05T05:22:03.459Z,18.13
2022-08-05T05:24:57.526Z,18.09
2022-08-05T05:27:41.552Z,18.09
2022-08-05T05:30:29.136Z,18.09
2022-08-05T05:33:00.791Z,18.17
2022-08-05T05:35:29.108Z,18.23
2022-08-05T05:38:02.977Z,18.28
2022-08-05T05:40:32.231Z,18.27
2022-08-05T05:43:00.174Z,18.25
2022-08-05T05:45:29.091Z,18.32
2022-08-05T05:48:07.110Z,18.44
2022-08-05T05:50:41.323Z,18.53
2022-08-05T05:53:22.559Z,18.62
2022-08-05T05:55:51.892Z,18.82
2022-08-05T05:58:30.339Z,19.05
2022-08-05T06:01:12.161Z,19.26
2022-08-05T06:04:01.305Z,19.50
2022-08-05T06:06:28.141Z,19.45
2022-08-05T06:08:57.472Z,19.51
2022-08-05T06:11:23.989Z,19.60
2022-08-05T06:13:55.436Z,19.70
2022-08-05T06:16:30.384Z,19.80
2022-08-05T06:19:00.941Z,19.88
2022-08-05T06:21:36.168Z,20.00
2022-08-05T06:24:06.239Z,20.17
2022-08-05T06:26:35.104Z,20.35
2022-08-05T06:29:03.384Z,20.41
2022-08-05T06:31:49.263Z,20.52
2022-08-05T06:34:19.952Z,20.60
2022-08-05T06:36:57.238Z,20.37
2022-08-05T06:39:27.152Z,20.34
2022-08-05T06:41:56.206Z,20.25
2022-08-05T06:44:25.310Z,20.13
2022-08-05T06:46:52.817Z,20.00
2022-08-05T06:49:59.876Z,19.91
2022-08-05T06:52:07.909Z,19.82
2022-08-05T06:54:54.448Z,19.86
2022-08-05T06:58:02.746Z,19.96
2022-08-05T07:00:09.884Z,20.08
2022-08-05T07:02:43.754Z,20.23
2022-08-05T07:05:18.720Z,20.40
2022-08-05T07:07:48.920Z,20.48
2022-08-05T07:10:16.479Z,20.59
2022-08-05T07:13:02.352Z,20.61
2022-08-05T07:16:00.745Z,20.66
2022-08-05T07:18:30.331Z,20.59
2022-08-05T07:20:57.476Z,20.59
2022-08-05T07:23:26.545Z,20.78
2022-08-05T07:25:56.948Z,20.96
2022-08-05T07:28:25.135Z,21.07
2022-08-05T07:30:54.887Z,21.20
2022-08-05T07:33:35.234Z,21.30
2022-08-05T07:36:20.180Z,21.50
2022-08-05T07:38:47.474Z,21.54
2022-08-05T07:42:07.915Z,21.53
2022-08-05T07:44:06.373Z,21.57
2022-08-05T07:46:41.180Z,21.62
2022-08-05T07:49:14.842Z,21.74
2022-08-05T07:51:53.734Z,21.81
2022-08-05T07:54:31.082Z,21.89
2022-08-05T07:57:13.341Z,21.97
2022-08-05T07:59:43.246Z,22.01
2022-08-05T08:02:16.794Z,21.98
2022-08-05T08:04:48.680Z,21.99
2022-08-05T08:07:17.833Z,21.97
2022-08-05T08:09:45.501Z,22.05
2022-08-05T08:12:35.182Z,21.89
2022-08-05T08:15:02.296Z,21.70
2022-08-05T08:17:30.287Z,21.65
2022-08-05T08:20:22.390Z,21.57
2022-08-05T08:22:43.534Z,21.51
2022-08-05T08:25:16.303Z,21.51
2022-08-05T08:27:47.551Z,21.62
2022-08-05T08:30:19.098Z,21.63
2022-08-05T08:32:56.906Z,21.82
2022-08-05T08:35:26.736Z,21.87
2022-08-05T08:37:54.436Z,21.59
2022-08-05T08:40:23.406Z,21.17
2022-08-05T08:42:52.570Z,21.00
2022-08-05T08:45:26.575Z,20.81
2022-08-05T08:48:10.610Z,20.75
2022-08-05T08:51:22.246Z,20.52
2022-08-05T08:53:37.573Z,20.41
2022-08-05T08:56:07.160Z,20.38
2022-08-05T08:58:43.506Z,20.50
2022-08-05T09:01:16.469Z,20.58
2022-08-05T09:03:47.624Z,20.38
2022-08-05T09:06:20.022Z,20.06
2022-08-05T09:08:48.401Z,19.88
2022-08-05T09:11:15.340Z,19.71
2022-08-05T09:14:10.184Z,19.58
2022-08-05T09:16:29.652Z,19.62
2022-08-05T09:18:56.188Z,19.61
2022-08-05T09:22:17.832Z,19.38
2022-08-05T09:24:15.621Z,19.25
2022-08-05T09:26:43.747Z,19.19
2022-08-05T09:29:10.893Z,19.24
2022-08-05T09:32:41.804Z,19.60
2022-08-05T09:34:53.511Z,19.95
2022-08-05T09:38:17.266Z,19.86
2022-08-05T09:40:09.415Z,19.59
2022-08-05T09:42:41.210Z,19.34
2022-08-05T09:45:17.973Z,19.13
2022-08-05T09:47:57.438Z,18.76
2022-08-05T09:50:38.822Z,18.25
2022-08-05T09:53:17.144Z,18.30
2022-08-05T09:55:59.293Z,18.48
2022-08-05T09:58:31.162Z,18.64
2022-08-05T10:01:14.801Z,18.48
2022-08-05T10:04:00.275Z,18.35
2022-08-05T10:06:27.987Z,18.29
2022-08-05T10:08:55.613Z,18.35
2022-08-05T10:11:22.810Z,18.40
2022-08-05T10:13:49.984Z,18.44
2022-08-05T10:16:41.998Z,18.52
2022-08-05T10:19:23.579Z,18.73
2022-08-05T10:22:07.889Z,18.76
2022-08-05T10:24:39.754Z,18.73
2022-08-05T10:27:07.580Z,18.51
2022-08-05T10:30:06.706Z,18.33
2022-08-05T10:32:53.604Z,18.14
2022-08-05T10:35:10.418Z,18.09
2022-08-05T10:37:40.019Z,17.83
2022-08-05T10:40:20.570Z,17.79
2022-08-05T10:42:59.051Z,17.81
2022-08-05T10:45:40.351Z,17.50
2022-08-05T10:48:52.622Z,17.41
2022-08-05T10:51:23.068Z,17.05
2022-08-05T10:54:01.042Z,17.16
2022-08-05T10:56:30.368Z,17.09
2022-08-05T10:59:11.439Z,16.49
2022-08-05T11:01:54.535Z,16.32
2022-08-05T11:04:31.794Z,16.57
2022-08-05T11:07:04.794Z,16.74
2022-08-05T11:09:45.400Z,16.76
2022-08-05T11:12:31.745Z,16.73
2022-08-05T11:15:19.615Z,16.67
2022-08-05T11:18:07.393Z,16.71
2022-08-05T11:20:44.126Z,16.29
2022-08-05T11:23:26.419Z,16.23
2022-08-05T11:26:29.061Z,16.23
2022-08-05T11:29:12.788Z,16.47
2022-08-05T11:31:58.790Z,16.65
2022-08-05T11:34:38.778Z,16.76
2022-08-05T11:38:14.343Z,16.59
2022-08-05T11:40:00.376Z,16.22
2022-08-05T11:42:32.247Z,15.87
2022-08-05T11:45:05.323Z,15.85
2022-08-05T11:47:48.235Z,15.88
2022-08-05T11:50:16.028Z,15.97
2022-08-05T11:52:44.151Z,16.17
2022-08-05T11:55:13.550Z,16.36
2022-08-05T11:58:10.520Z,16.46
2022-08-05T12:00:32.428Z,16.40
2022-08-05T12:03:31.760Z,16.51
2022-08-05T12:06:05.838Z,16.75
2022-08-05T12:08:33.015Z,16.90
2022-08-05T12:11:05.425Z,16.97
2022-08-05T12:13:48.808Z,16.93
2022-08-05T12:16:18.928Z,17.29
2022-08-05T12:18:48.994Z,18.59
2022-08-05T12:21:30.052Z,19.10
2022-08-05T12:24:14.272Z,19.88
2022-08-05T12:26:44.517Z,19.97
2022-08-05T12:29:17.891Z,20.57
2022-08-05T12:31:54.577Z,23.31
2022-08-05T12:34:25.762Z,26.52
2022-08-05T12:36:53.645Z,25.53
2022-08-05T12:39:20.768Z,26.05
2022-08-05T12:41:47.563Z,25.15
2022-08-05T12:44:28.583Z,24.86
2022-08-05T12:47:00.649Z,25.47
2022-08-05T12:50:04.652Z,25.84
2022-08-05T12:52:38.552Z,25.21
2022-08-05T12:55:26.304Z,25.78
2022-08-05T12:58:49.830Z,25.98
2022-08-05T13:02:00.489Z,25.45
2022-08-05T13:03:41.915Z,28.19
2022-08-05T13:06:16.055Z,28.79
2022-08-05T13:08:50.587Z,31.15
2022-08-05T13:12:01.716Z,32.61
2022-08-05T13:14:19.503Z,31.93
2022-08-05T13:17:10.640Z,31.27
2022-08-05T13:19:51.691Z,29.03
2022-08-05T13:22:28.287Z,29.90
2022-08-05T13:24:58.227Z,28.93
2022-08-05T13:27:37.741Z,27.32
2022-08-05T13:30:33.955Z,28.67
2022-08-05T13:33:02.426Z,29.09
2022-08-05T13:35:31.429Z,28.57
2022-08-05T13:38:15.772Z,26.98
2022-08-05T13:40:55.178Z,25.88
2022-08-05T13:43:22.295Z,26.05
2022-08-05T13:45:48.979Z,25.17
2022-08-05T13:48:57.366Z,25.14
2022-08-05T13:51:13.665Z,24.37
2022-08-05T13:53:48.200Z,23.16
2022-08-05T13:56:18.977Z,23.26
2022-08-05T13:58:52.973Z,22.70
2022-08-05T14:01:22.008Z,22.25
2022-08-05T14:04:12.795Z,21.63
2022-08-05T14:06:39.345Z,21.51
2022-08-05T14:09:14.244Z,21.57
2022-08-05T14:12:04.086Z,21.65
2022-08-05T14:14:33.542Z,21.65
2022-08-05T14:17:00.355Z,22.00
2022-08-05T14:19:27.354Z,22.15
2022-08-05T14:22:11.793Z,22.05
2022-08-05T14:24:39.886Z,22.12
2022-08-05T14:27:17.669Z,22.11
2022-08-05T14:29:45.001Z,22.28
2022-08-05T14:32:27.115Z,21.97
2022-08-05T14:34:54.731Z,21.94
2022-08-05T14:37:42.136Z,22.04
2022-08-05T14:40:14.285Z,21.55
2022-08-05T14:42:43.797Z,21.04
2022-08-05T14:45:10.752Z,20.82
2022-08-05T14:48:05.284Z,20.79
2022-08-05T14:50:25.279Z,20.53
2022-08-05T14:52:57.573Z,20.44
2022-08-05T14:55:25.900Z,20.63
2022-08-05T14:58:10.888Z,20.24
2022-08-05T15:00:58.893Z,20.61
2022-08-05T15:03:33.317Z,21.24
2022-08-05T15:06:07.642Z,21.74
2022-08-05T15:09:01.226Z,21.34
2022-08-05T15:11:51.223Z,21.05
2022-08-05T15:14:33.243Z,21.43
2022-08-05T15:17:01.680Z,22.00
2022-08-05T15:19:30.763Z,22.11
2022-08-05T15:21:58.018Z,21.99
2022-08-05T15:24:27.524Z,21.96
2022-08-05T15:26:54.098Z,22.01
2022-08-05T15:29:22.933Z,21.34
2022-08-05T15:31:53.097Z,21.45
2022-08-05T15:34:33.167Z,21.63
2022-08-05T15:37:06.393Z,21.78
2022-08-05T15:40:58.917Z,21.73
2022-08-05T15:42:53.489Z,21.58
2022-08-05T15:45:14.728Z,21.07
2022-08-05T15:47:42.250Z,20.53
2022-08-05T15:50:09.936Z,19.94
2022-08-05T15:52:53.163Z,19.43
2022-08-05T15:55:24.527Z,19.15
2022-08-05T15:57:52.034Z,19.02
2022-08-05T16:00:32.624Z,18.71
2022-08-05T16:03:05.857Z,18.68
2022-08-05T16:05:32.427Z,18.88
2022-08-05T16:07:59.047Z,19.12
2022-08-05T16:10:26.840Z,19.39
2022-08-05T16:12:56.032Z,19.28
2022-08-05T16:15:23.213Z,19.46
2022-08-05T16:17:57.543Z,19.70
2022-08-05T16:20:25.042Z,19.97
2022-08-05T16:22:51.621Z,20.17
2022-08-05T16:25:18.617Z,19.69
2022-08-05T16:27:47.117Z,19.92
2022-08-05T16:30:32.191Z,19.94
2022-08-05T16:32:59.560Z,20.06
2022-08-05T16:35:28.416Z,20.09
2022-08-05T16:38:02.683Z,19.77
2022-08-05T16:40:51.944Z,19.55
2022-08-05T16:43:23.698Z,19.20
2022-08-05T16:46:05.234Z,19.05
2022-08-05T16:48:35.313Z,19.20
2022-08-05T16:51:02.406Z,19.13
2022-08-05T16:54:05.274Z,19.14
2022-08-05T16:56:22.247Z,19.28
2022-08-05T16:58:50.047Z,19.46
2022-08-05T17:01:16.879Z,19.65
2022-08-05T17:03:45.587Z,19.65
2022-08-05T17:06:12.353Z,19.47
2022-08-05T17:08:52.410Z,19.26
2022-08-05T17:11:20.323Z,19.42
2022-08-05T17:13:50.151Z,19.30
2022-08-05T17:16:32.810Z,19.00
2022-08-05T17:19:00.708Z,18.77
2022-08-05T17:21:35.465Z,18.53
2022-08-05T17:24:14.288Z,18.37
2022-08-05T17:26:50.824Z,18.17
2022-08-05T17:29:18.004Z,17.90
2022-08-05T17:31:58.371Z,17.89
2022-08-05T17:34:30.156Z,17.85
2022-08-05T17:36:59.895Z,17.91
2022-08-05T17:39:33.611Z,18.05
2022-08-05T17:42:17.418Z,18.17
2022-08-05T17:44:50.074Z,18.23
2022-08-05T17:47:22.014Z,18.24
2022-08-05T17:49:56.768Z,18.17
2022-08-05T17:52:27.450Z,18.04
2022-08-05T17:54:54.255Z,17.82
2022-08-05T17:57:22.029Z,17.74
2022-08-05T18:00:05.159Z,17.68
2022-08-05T18:02:34.185Z,17.64
2022-08-05T18:05:03.678Z,17.52
2022-08-05T18:07:41.360Z,17.43
2022-08-05T18:10:10.353Z,17.41
2022-08-05T18:12:37.565Z,17.41
2022-08-05T18:15:04.748Z,17.39
2022-08-05T18:17:59.490Z,17.29
2022-08-05T18:20:19.425Z,17.21
2022-08-05T18:22:57.223Z,17.11
2022-08-05T18:25:25.127Z,16.95
2022-08-05T18:27:52.382Z,16.84
2022-08-05T18:30:19.531Z,16.71
2022-08-05T18:32:53.583Z,16.65
2022-08-05T18:35:49.687Z,16.56
2022-08-05T18:38:14.121Z,16.46
2022-08-05T18:41:56.359Z,16.30
2022-08-05T18:43:37.925Z,16.21
2022-08-05T18:46:09.533Z,16.07
2022-08-05T18:48:41.690Z,15.96
2022-08-05T18:52:02.858Z,15.85
2022-08-05T18:54:14.404Z,15.66
2022-08-05T18:56:41.847Z,15.57
2022-08-05T18:59:44.142Z,15.45
2022-08-05T19:02:04.697Z,15.26
2022-08-05T19:05:01.301Z,15.20
2022-08-05T19:07:24.937Z,14.99
2022-08-05T19:09:56.894Z,14.90
2022-08-05T19:12:23.802Z,14.82
2022-08-05T19:15:00.705Z,14.73
2022-08-05T19:17:58.200Z,14.67
2022-08-05T19:20:16.081Z,14.51
2022-08-05T19:22:44.613Z,14.42
2022-08-05T19:25:29.687Z,14.23
2022-08-05T19:27:56.839Z,14.14
2022-08-05T19:30:23.719Z,14.09
2022-08-05T19:32:50.471Z,13.97
2022-08-05T19:35:17.008Z,13.81
2022-08-05T19:38:04.651Z,13.70
2022-08-05T19:40:33.633Z,13.63
2022-08-05T19:43:04.820Z,13.55
2022-08-05T19:45:33.341Z,13.53
2022-08-05T19:48:04.257Z,13.43
2022-08-05T19:50:32.069Z,13.34
2022-08-05T19:52:58.623Z,13.28
2022-08-05T19:56:15.569Z,13.15
2022-08-05T19:58:28.353Z,13.11
2022-08-05T20:00:56.392Z,13.11
2022-08-05T20:03:24.523Z,13.00
2022-08-05T20:05:56.553Z,12.91
2022-08-05T20:08:24.827Z,12.78
2022-08-05T20:10:52.281Z,12.63
2022-08-05T20:13:30.136Z,12.62
2022-08-05T20:16:06.326Z,12.50
2022-08-05T20:18:36.316Z,12.43
2022-08-05T20:21:05.048Z,12.34
2022-08-05T20:23:39.358Z,12.27
2022-08-05T20:26:17.861Z,12.35
2022-08-05T20:28:50.476Z,12.37
2022-08-05T20:31:21.706Z,12.36
2022-08-05T20:33:55.390Z,12.28
2022-08-05T20:36:24.000Z,12.11
2022-08-05T20:38:53.534Z,11.98
2022-08-05T20:41:24.139Z,11.86
2022-08-05T20:43:59.049Z,11.80
2022-08-05T20:46:27.086Z,11.67
2022-08-05T20:48:53.683Z,11.64
2022-08-05T20:51:21.335Z,11.66
2022-08-05T20:53:56.785Z,11.69
2022-08-05T20:56:29.708Z,11.64
2022-08-05T20:59:11.228Z,11.64
2022-08-05T21:01:45.311Z,11.50
2022-08-05T21:04:11.912Z,11.45
2022-08-05T21:06:45.168Z,11.48
2022-08-05T21:09:14.782Z,11.38
2022-08-05T21:12:08.912Z,11.31
2022-08-05T21:14:34.809Z,11.35
2022-08-05T21:17:03.036Z,11.31
2022-08-05T21:19:47.005Z,11.33
2022-08-05T21:22:18.541Z,11.28
2022-08-05T21:24:51.401Z,11.26
2022-08-05T21:27:20.521Z,11.19
2022-08-05T21:29:52.275Z,11.13
2022-08-05T21:32:20.882Z,11.06
2022-08-05T21:34:56.065Z,11.00
2022-08-05T21:37:35.287Z,11.02
2022-08-05T21:40:13.129Z,10.85
2022-08-05T21:42:44.101Z,10.84
2022-08-05T21:45:11.901Z,10.77
2022-08-05T21:47:56.302Z,10.68
2022-08-05T21:50:27.070Z,10.71
2022-08-05T21:52:58.923Z,10.69
2022-08-05T21:55:43.091Z,10.67
2022-08-05T21:58:19.650Z,10.61
2022-08-05T22:00:51.285Z,10.56
2022-08-05T22:03:18.531Z,10.55
2022-08-05T22:06:06.269Z,10.45
2022-08-05T22:08:34.949Z,10.34
2022-08-05T22:11:01.545Z,10.29
2022-08-05T22:14:32.342Z,10.26
2022-08-05T22:16:39.565Z,10.28
2022-08-05T22:19:01.431Z,10.25
2022-08-05T22:21:28.026Z,10.21
2022-08-05T22:24:40.272Z,10.20
2022-08-05T22:27:25.642Z,10.25
2022-08-05T22:30:16.035Z,10.24
2022-08-05T22:32:43.889Z,10.21
2022-08-05T22:35:12.885Z,10.09
2022-08-05T22:37:58.492Z,10.08
2022-08-05T22:40:26.833Z,9.99
2022-08-05T22:42:58.117Z,9.99
2022-08-05T22:45:26.465Z,9.97
2022-08-05T22:47:57.055Z,10.05
2022-08-05T22:50:26.786Z,10.07
2022-08-05T22:52:54.857Z,10.12
2022-08-05T22:55:23.120Z,10.11
2022-08-05T22:57:50.719Z,10.10
2022-08-05T23:00:20.573Z,10.02
2022-08-05T23:02:48.192Z,10.02
2022-08-05T23:05:15.774Z,10.07
2022-08-05T23:07:44.988Z,10.07
2022-08-05T23:10:12.541Z,10.00
2022-08-05T23:12:39.095Z,10.01
2022-08-05T23:15:08.903Z,9.91
2022-08-05T23:17:37.944Z,9.89
2022-08-05T23:20:24.425Z,9.80
2022-08-05T23:22:55.634Z,9.62
2022-08-05T23:25:53.009Z,9.52
2022-08-05T23:28:09.861Z,9.43
2022-08-05T23:30:40.473Z,9.33
2022-08-05T23:33:16.486Z,9.36
2022-08-05T23:35:55.976Z,9.32
2022-08-05T23:38:23.554Z,9.38
2022-08-05T23:40:52.442Z,9.44
2022-08-05T23:43:25.121Z,9.48
2022-08-05T23:46:03.964Z,9.53
2022-08-05T23:48:30.534Z,9.51
2022-08-05T23:50:57.049Z,9.62
2022-08-05T23:53:28.526Z,9.61
2022-08-05T23:56:11.825Z,9.57
2022-08-05T23:58:38.567Z,9.55
